Time;durP1;ratioP1;P1;durP2;ratioP2;P2;SDS_P1;SDS_P2;PMS_P1;PMS_P2;Temp;Humidity;BMP_temperature;BMP_pressure;BME280_temperature;BME280_humidity;BME280_pressure;Samples;Min_cycle;Max_cycle;Signal;HPM_P1;HPM_P2
2022/12/09 00:01:18;;;;;;;16.42;11.70;;;;;;;3.89;100.00;100555.56;4986484;28;20034;-46
2022/12/09 00:03:46;;;;;;;12.60;10.00;;;;;;;3.88;100.00;100564.72;4998606;28;20129;-49
2022/12/09 00:06:23;;;;;;;15.15;11.63;;;;;;;3.85;100.00;100560.59;5011533;28;20121;-49
2022/12/09 00:08:51;;;;;;;13.88;10.82;;;;;;;3.86;100.00;100561.41;4967905;28;20556;-48
2022/12/09 00:11:20;;;;;;;14.80;11.32;;;;;;;3.88;100.00;100564.72;5006316;28;20427;-51
2022/12/09 00:13:49;;;;;;;15.35;11.50;;;;;;;3.91;100.00;100558.84;5010827;28;20456;-47
2022/12/09 00:16:17;;;;;;;19.15;13.02;;;;;;;3.90;100.00;100549.13;5012976;28;20129;-49
2022/12/09 00:18:45;;;;;;;17.67;12.52;;;;;;;3.89;100.00;100548.28;5015944;28;20042;-48
2022/12/09 00:21:19;;;;;;;16.98;12.43;;;;;;;3.90;100.00;100557.22;5008721;28;20523;-47
2022/12/09 00:23:47;;;;;;;16.95;12.98;;;;;;;3.88;100.00;100554.75;5015924;28;20042;-49
2022/12/09 00:26:16;;;;;;;17.33;12.77;;;;;;;3.89;100.00;100555.56;5006027;28;20042;-52
2022/12/09 00:28:44;;;;;;;16.90;12.40;;;;;;;3.88;100.00;100551.22;4958368;28;20069;-49
2022/12/09 00:31:19;;;;;;;17.42;12.70;;;;;;;3.86;100.00;100548.75;4965431;28;20459;-49
2022/12/09 00:33:47;;;;;;;17.15;13.48;;;;;;;3.84;100.00;100546.28;5015881;28;20100;-50
2022/12/09 00:36:18;;;;;;;15.25;12.63;;;;;;;3.87;100.00;100553.06;5006135;28;20085;-47
2022/12/09 00:38:46;;;;;;;16.02;12.60;;;;;;;3.88;100.00;100553.94;4977864;28;20038;-48
2022/12/09 00:41:15;;;;;;;17.65;13.77;;;;;;;3.90;100.00;100546.44;4994428;28;20058;-47
2022/12/09 00:43:44;;;;;;;16.98;12.75;;;;;;;3.91;100.00;100553.44;4998416;28;20500;-47
2022/12/09 00:46:13;;;;;;;16.55;12.95;;;;;;;3.94;100.00;100558.38;4998271;28;20046;-49
2022/12/09 00:48:42;;;;;;;16.50;12.88;;;;;;;3.94;100.00;100559.19;4981067;28;20412;-51
2022/12/09 00:51:17;;;;;;;18.45;14.00;;;;;;;3.93;100.00;100554.88;4965690;28;20094;-51
2022/12/09 00:53:46;;;;;;;18.05;13.75;;;;;;;3.92;100.00;100560.47;4989874;28;20041;-51
2022/12/09 00:56:14;;;;;;;18.48;14.65;;;;;;;3.90;100.00;100562.59;5015370;28;20064;-49
2022/12/09 00:58:42;;;;;;;16.35;13.32;;;;;;;3.88;100.00;100559.31;4994973;28;20058;-53
2022/12/09 01:01:10;;;;;;;21.05;15.07;;;;;;;3.86;100.00;100554.16;4974692;28;20552;-49
2022/12/09 01:03:38;;;;;;;18.02;14.65;;;;;;;3.85;100.00;100560.59;5008497;28;20488;-51
2022/12/09 01:06:16;;;;;;;20.80;16.65;;;;;;;3.82;100.00;100550.25;4983317;28;20057;-52
2022/12/09 01:08:45;;;;;;;19.58;16.73;;;;;;;3.83;100.00;100549.22;4964622;28;20050;-47
2022/12/09 01:11:34;;;;;;;21.85;16.88;;;;;;;3.86;100.00;100550.63;5015382;28;20052;-49
2022/12/09 01:14:02;;;;;;;23.75;18.10;;;;;;;3.88;100.00;100556.63;5014701;28;20050;-48
2022/12/09 01:16:32;;;;;;;23.75;17.88;;;;;;;3.90;100.00;100554.53;5004981;28;20077;-48
2022/12/09 01:19:03;;;;;;;22.65;18.00;;;;;;;3.87;100.00;100555.78;4962396;28;20052;-48
2022/12/09 01:21:31;;;;;;;22.52;18.45;;;;;;;3.86;100.00;100551.44;5013549;28;20570;-47
2022/12/09 01:24:00;;;;;;;22.35;17.88;;;;;;;3.88;100.00;100556.63;4983395;28;20050;-50
2022/12/09 01:26:28;;;;;;;25.15;18.67;;;;;;;3.89;100.00;100555.56;4997218;28;20046;-48
2022/12/09 01:28:56;;;;;;;23.65;19.17;;;;;;;3.89;100.00;100555.56;5009356;28;20488;-49
2022/12/09 01:31:24;;;;;;;25.10;19.80;;;;;;;3.88;100.00;100560.13;4996870;28;20050;-50
2022/12/09 01:33:54;;;;;;;23.42;19.75;;;;;;;3.90;100.00;100559.91;5008416;28;20062;-50
2022/12/09 01:36:26;;;;;;;21.95;16.73;;;;;;;3.87;100.00;100563.03;4977668;28;20042;-49
2022/12/09 01:38:53;;;;;;;21.42;16.60;;;;;;;3.76;100.00;100562.78;4976967;28;20045;-48
2022/12/09 01:41:21;;;;;;;20.25;17.00;;;;;;;3.69;100.00;100567.44;4993763;28;20040;-46
2022/12/09 01:44:17;;;;;;;23.35;17.15;;;;;;;3.70;100.00;100573.66;5010963;28;20081;-50
2022/12/09 01:46:46;;;;;;;23.15;18.85;;;;;;;3.68;100.00;100571.19;4992189;28;20065;-47
2022/12/09 01:49:18;;;;;;;20.48;16.80;;;;;;;3.68;100.00;100565.81;4983780;28;20431;-49
2022/12/09 01:52:15;;;;;;;22.70;17.80;;;;;;;3.72;100.00;100571.56;4979368;28;20045;-49
2022/12/09 01:54:45;;;;;;;24.73;20.58;;;;;;;3.73;100.00;100570.50;5001150;28;20212;-47
2022/12/09 01:57:14;;;;;;;24.67;20.63;;;;;;;3.73;100.00;100571.34;4967005;28;20501;-49
2022/12/09 01:59:43;;;;;;;25.40;21.63;;;;;;;3.75;100.00;100577.31;5001873;28;20093;-52
2022/12/09 02:02:14;;;;;;;27.83;20.65;;;;;;;3.68;100.00;100564.97;4962315;28;20166;-48
2022/12/09 02:04:44;;;;;;;28.73;22.60;;;;;;;3.54;100.00;100553.56;4993286;28;20042;-48
2022/12/09 02:07:14;;;;;;;31.05;23.75;;;;;;;3.40;100.00;100559.13;4982839;28;20042;-48
2022/12/09 02:09:42;;;;;;;28.35;22.17;;;;;;;3.30;100.00;100558.84;4984011;28;20035;-48
2022/12/09 02:12:32;;;;;;;25.33;19.95;;;;;;;3.30;100.00;100558.84;4961496;28;20499;-49
2022/12/09 02:15:06;;;;;;;26.52;21.42;;;;;;;3.42;100.00;100558.91;4971370;28;20125;-48
2022/12/09 02:17:45;;;;;;;25.55;21.27;;;;;;;3.56;100.00;100562.22;4980250;28;20045;-49
2022/12/09 02:20:18;;;;;;;26.27;21.58;;;;;;;3.62;100.00;100566.72;4981895;28;20039;-52
2022/12/09 02:23:14;;;;;;;28.33;22.02;;;;;;;3.66;100.00;100567.09;4980301;28;20048;-51
2022/12/09 02:26:14;;;;;;;28.90;21.65;;;;;;;3.67;100.00;100558.75;4984381;28;20046;-50
2022/12/09 02:29:01;;;;;;;27.48;22.35;;;;;;;3.63;100.00;100558.41;4997641;28;20389;-52
2022/12/09 02:31:40;;;;;;;27.80;21.92;;;;;;;3.65;100.00;100560.88;4959752;28;20042;-51
2022/12/09 02:34:29;;;;;;;28.30;22.20;;;;;;;3.69;100.00;100562.06;4973537;28;20045;-48
2022/12/09 02:37:15;;;;;;;26.27;21.58;;;;;;;3.71;100.00;100565.34;4960030;28;20049;-51
2022/12/09 02:40:14;;;;;;;29.63;21.20;;;;;;;3.65;100.00;100571.63;4988469;28;20062;-50
2022/12/09 02:42:43;;;;;;;27.67;22.23;;;;;;;3.60;100.00;100563.44;4976771;28;20065;-49
2022/12/09 02:45:13;;;;;;;25.23;21.65;;;;;;;3.59;100.00;100568.00;4972328;28;20034;-48
2022/12/09 02:47:47;;;;;;;27.77;21.13;;;;;;;3.64;100.00;100564.63;4993038;28;20057;-50
2022/12/09 02:50:18;;;;;;;26.17;22.20;;;;;;;3.67;100.00;100569.53;4966563;28;20412;-45
2022/12/09 02:52:46;;;;;;;32.08;21.73;;;;;;;3.69;100.00;100561.25;4988486;28;20046;-49
2022/12/09 02:55:17;;;;;;;28.73;22.50;;;;;;;3.68;100.00;100554.19;4968059;28;20050;-51
2022/12/09 02:57:45;;;;;;;30.73;22.67;;;;;;;3.64;100.00;100548.44;4978201;28;20092;-49
2022/12/09 03:00:14;;;;;;;27.25;22.20;;;;;;;3.63;100.00;100547.63;4976724;28;20124;-49
2022/12/09 03:02:46;;;;;;;28.70;22.73;;;;;;;3.67;100.00;100548.00;4999224;28;20496;-50
2022/12/09 03:05:24;;;;;;;31.98;24.25;;;;;;;3.71;100.00;100546.50;4996028;28;20026;-48
2022/12/09 03:08:06;;;;;;;30.70;23.65;;;;;;;3.68;100.00;100543.41;5003316;28;20034;-49
2022/12/09 03:10:55;;;;;;;32.13;23.48;;;;;;;3.64;100.00;100543.06;5001958;28;20125;-49
2022/12/09 03:14:02;;;;;;;30.50;22.83;;;;;;;3.65;100.00;100550.09;5001525;28;20037;-46
2022/12/09 03:16:40;;;;;;;29.20;22.83;;;;;;;3.70;100.00;100535.94;5014653;28;20456;-48
2022/12/09 03:19:11;;;;;;;30.40;22.85;;;;;;;3.72;100.00;100539.22;4999571;28;20493;-47
2022/12/09 03:21:44;;;;;;;31.17;23.30;;;;;;;3.71;100.00;100533.03;5004403;28;20522;-49
2022/12/09 03:24:15;;;;;;;33.25;23.55;;;;;;;3.70;100.00;100541.31;4999431;28;20046;-48
2022/12/09 03:26:43;;;;;;;34.00;24.80;;;;;;;3.70;100.00;100542.13;4986992;28;20034;-46
2022/12/09 03:29:16;;;;;;;37.58;25.38;;;;;;;3.71;100.00;100538.41;4981132;28;20030;-48
2022/12/09 03:31:45;;;;;;;32.65;25.55;;;;;;;3.66;100.00;100535.59;5004013;28;20042;-48
2022/12/09 03:34:16;;;;;;;34.47;25.30;;;;;;;3.62;100.00;100537.91;5016825;28;20049;-46
2022/12/09 03:36:47;;;;;;;33.67;24.58;;;;;;;3.63;100.00;100530.63;4998964;28;20120;-48
2022/12/09 03:39:17;;;;;;;38.72;24.27;;;;;;;3.64;100.00;100526.91;4997187;28;20037;-47
2022/12/09 03:41:49;;;;;;;35.03;25.65;;;;;;;3.66;100.00;100524.81;4983676;28;20462;-49
2022/12/09 03:44:20;;;;;;;36.88;25.38;;;;;;;3.69;100.00;100521.66;5016480;28;20488;-47
2022/12/09 03:46:48;;;;;;;42.90;26.73;;;;;;;3.72;100.00;100510.41;4999250;28;20212;-50
2022/12/09 03:49:16;;;;;;;35.35;25.80;;;;;;;3.76;100.00;100514.28;5016268;28;20030;-48
2022/12/09 03:52:10;;;;;;;36.97;25.58;;;;;;;3.75;100.00;100509.97;5006924;28;20056;-48
2022/12/09 03:54:45;;;;;;;39.08;27.55;;;;;;;3.70;100.00;100515.19;4983041;28;20047;-46
2022/12/09 03:57:18;;;;;;;35.25;25.40;;;;;;;3.70;100.00;100515.19;4995376;28;20108;-49
2022/12/09 03:59:58;;;;;;;38.15;27.00;;;;;;;3.69;100.00;100508.16;4998788;28;20089;-48
2022/12/09 04:02:27;;;;;;;42.05;27.20;;;;;;;3.66;100.00;100508.63;4975584;28;20046;-47
2022/12/09 04:04:55;;;;;;;43.72;25.73;;;;;;;3.70;100.00;100514.38;4988877;28;20113;-45
2022/12/09 04:07:22;;;;;;;36.15;27.90;;;;;;;3.75;100.00;100517.19;5014695;28;20448;-49
2022/12/09 04:09:50;;;;;;;37.45;28.45;;;;;;;3.74;100.00;100519.06;4999026;28;20052;-46
2022/12/09 04:12:18;;;;;;;42.22;27.65;;;;;;;3.73;100.00;100512.06;4999938;28;20050;-49
2022/12/09 04:14:46;;;;;;;44.90;27.58;;;;;;;3.73;100.00;100513.91;5008940;28;20133;-49
2022/12/09 04:17:13;;;;;;;41.38;28.40;;;;;;;3.72;100.00;100523.06;5016064;28;20046;-47
2022/12/09 04:19:41;;;;;;;42.63;29.48;;;;;;;3.71;100.00;100516.84;4998379;28;20117;-47
2022/12/09 04:22:09;;;;;;;41.25;28.33;;;;;;;3.72;100.00;100513.09;5006226;28;20041;-48
2022/12/09 04:24:37;;;;;;;37.75;28.10;;;;;;;3.72;100.00;100520.34;5001978;28;20037;-45
2022/12/09 04:27:04;;;;;;;45.08;28.25;;;;;;;3.69;100.00;100516.25;5005373;28;20046;-43
2022/12/09 04:29:32;;;;;;;43.03;29.67;;;;;;;3.67;100.00;100512.97;5016239;28;20046;-43
2022/12/09 04:32:00;;;;;;;44.00;30.85;;;;;;;3.69;100.00;100512.75;5004642;28;20041;-43
2022/12/09 04:34:27;;;;;;;44.28;30.02;;;;;;;3.70;100.00;100511.69;5008698;28;20068;-44
2022/12/09 04:36:55;;;;;;;42.42;29.40;;;;;;;3.68;100.00;100505.69;5005114;28;20050;-44
2022/12/09 04:39:23;;;;;;;42.08;29.63;;;;;;;3.68;100.00;100508.38;5015885;28;20439;-45
2022/12/09 04:41:51;;;;;;;45.30;29.35;;;;;;;3.67;100.00;100504.06;4995823;28;20042;-44
2022/12/09 04:44:18;;;;;;;46.40;29.20;;;;;;;3.68;100.00;100498.47;5005524;28;20439;-43
2022/12/09 04:46:46;;;;;;;44.75;29.25;;;;;;;3.66;100.00;100502.44;5004472;28;20092;-44
2022/12/09 04:49:14;;;;;;;47.75;31.48;;;;;;;3.65;100.00;100506.97;5015507;28;20046;-43
2022/12/09 04:51:42;;;;;;;42.45;30.52;;;;;;;3.66;100.00;100507.81;4994176;28;20038;-43
2022/12/09 04:54:13;;;;;;;46.53;31.05;;;;;;;3.65;100.00;100517.75;5014993;28;20049;-49
2022/12/09 04:56:41;;;;;;;44.47;30.52;;;;;;;3.66;100.00;100514.03;5009604;28;20112;-45
2022/12/09 04:59:09;;;;;;;45.22;29.95;;;;;;;3.66;100.00;100507.81;5015058;28;20037;-45
2022/12/09 05:01:36;;;;;;;43.17;30.58;;;;;;;3.68;100.00;100513.78;5000302;28;20038;-47
2022/12/09 05:04:05;;;;;;;43.50;29.63;;;;;;;3.69;100.00;100512.75;5004822;28;20136;-43
2022/12/09 05:06:33;;;;;;;42.88;29.98;;;;;;;3.67;100.00;100521.03;5006925;28;20069;-45
2022/12/09 05:09:03;;;;;;;46.67;30.85;;;;;;;3.65;100.00;100517.75;4992167;28;20121;-43
2022/12/09 05:11:31;;;;;;;50.13;30.75;;;;;;;3.65;100.00;100523.16;5005748;28;20508;-43
2022/12/09 05:13:58;;;;;;;46.25;30.92;;;;;;;3.65;100.00;100511.56;5000741;28;20050;-43
2022/12/09 05:16:27;;;;;;;43.83;30.75;;;;;;;3.64;100.00;100521.50;5007671;28;20046;-44
2022/12/09 05:18:55;;;;;;;48.05;29.30;;;;;;;3.67;100.00;100521.03;4990568;28;20515;-44
2022/12/09 05:21:23;;;;;;;44.72;30.85;;;;;;;3.63;100.00;100506.38;4982500;28;20046;-44
2022/12/09 05:23:51;;;;;;;50.17;31.23;;;;;;;3.65;100.00;100517.75;4988192;28;20058;-44
2022/12/09 05:26:21;;;;;;;44.90;30.52;;;;;;;3.65;100.00;100508.84;5007706;28;20506;-45
2022/12/09 05:28:50;;;;;;;44.72;30.17;;;;;;;3.67;100.00;100512.97;4979905;28;20104;-44
2022/12/09 05:31:21;;;;;;;47.40;31.65;;;;;;;3.64;100.00;100505.34;4998573;28;20042;-44
2022/12/09 05:33:49;;;;;;;52.72;31.58;;;;;;;3.63;100.00;100514.47;5003476;28;20400;-45
2022/12/09 05:36:20;;;;;;;43.95;29.40;;;;;;;3.62;100.00;100518.22;4966920;28;20034;-45
2022/12/09 05:38:49;;;;;;;47.25;31.55;;;;;;;3.63;100.00;100519.84;4993014;28;20555;-47
2022/12/09 05:41:17;;;;;;;45.65;32.50;;;;;;;3.60;100.00;100507.66;4994202;28;20114;-46
2022/12/09 05:43:46;;;;;;;49.00;32.63;;;;;;;3.57;100.00;100510.00;5006931;28;20544;-46
2022/12/09 05:46:14;;;;;;;44.28;31.88;;;;;;;3.51;100.00;100508.22;5008128;28;20052;-47
2022/12/09 05:48:43;;;;;;;42.45;31.23;;;;;;;3.50;100.00;100506.59;4966695;28;20117;-46
2022/12/09 05:51:21;;;;;;;46.17;32.58;;;;;;;3.55;100.00;100507.53;4990748;28;20046;-44
2022/12/09 05:53:50;;;;;;;46.13;31.90;;;;;;;3.60;100.00;100509.53;5013867;28;20124;-47
2022/12/09 05:56:19;;;;;;;46.03;32.50;;;;;;;3.63;100.00;100511.78;5013812;28;20077;-46
2022/12/09 05:58:47;;;;;;;44.25;32.55;;;;;;;3.65;100.00;100506.16;4985656;28;20416;-47
2022/12/09 06:01:17;;;;;;;46.40;33.42;;;;;;;3.61;100.00;100511.22;5000621;28;20049;-46
2022/12/09 06:03:49;;;;;;;44.70;32.60;;;;;;;3.52;100.00;100509.88;5013305;28;20052;-46
2022/12/09 06:06:19;;;;;;;45.85;32.03;;;;;;;3.40;100.00;100502.56;4281071;28;10000659;-48
2022/12/09 06:08:48;;;;;;;45.17;32.85;;;;;;;3.29;100.00;100503.34;4975798;28;20132;-48
2022/12/09 06:11:19;;;;;;;46.95;32.65;;;;;;;3.21;100.00;100506.34;4996987;28;20097;-43
2022/12/09 06:13:48;;;;;;;50.13;33.40;;;;;;;3.17;100.00;100499.78;4993315;28;20082;-44
2022/12/09 06:16:18;;;;;;;47.83;32.65;;;;;;;3.18;100.00;100501.44;4985492;28;20085;-45
2022/12/09 06:18:47;;;;;;;48.10;32.97;;;;;;;3.18;100.00;100504.94;4979251;28;20089;-45
2022/12/09 06:21:18;;;;;;;44.90;31.98;;;;;;;3.27;100.00;100508.16;4986528;28;20073;-44
2022/12/09 06:23:47;;;;;;;42.83;30.45;;;;;;;3.36;100.00;100498.69;5010838;28;20050;-47
2022/12/09 06:26:26;;;;;;;43.65;30.85;;;;;;;3.45;100.00;100504.59;5009930;28;20129;-48
2022/12/09 06:28:55;;;;;;;40.88;29.85;;;;;;;3.50;100.00;100511.97;5006768;28;20042;-43
2022/12/09 06:31:23;;;;;;;43.28;30.33;;;;;;;3.51;100.00;100510.91;4991605;28;20048;-43
2022/12/09 06:33:51;;;;;;;38.55;27.05;;;;;;;3.55;100.00;100512.09;4973123;28;20101;-44
2022/12/09 06:36:23;;;;;;;41.58;30.02;;;;;;;3.57;100.00;100515.41;5006328;28;20120;-47
2022/12/09 06:38:51;;;;;;;39.97;29.85;;;;;;;3.58;100.00;100514.34;5002393;28;20056;-47
2022/12/09 06:41:19;;;;;;;37.75;28.73;;;;;;;3.58;100.00;100517.03;4963896;28;20412;-46
2022/12/09 06:43:47;;;;;;;40.90;29.73;;;;;;;3.55;100.00;100506.72;4977591;28;20209;-46
2022/12/09 06:46:17;;;;;;;39.75;29.92;;;;;;;3.53;100.00;100514.22;4997523;28;20034;-52
2022/12/09 06:48:45;;;;;;;44.95;30.90;;;;;;;3.49;100.00;100515.69;5005128;28;20143;-47
2022/12/09 06:51:14;;;;;;;42.15;30.90;;;;;;;3.41;100.00;100508.78;5001491;28;20047;-46
2022/12/09 06:53:42;;;;;;;43.72;32.30;;;;;;;3.38;100.00;100510.06;4984894;28;20575;-47
2022/12/09 06:56:11;;;;;;;44.92;31.73;;;;;;;3.36;100.00;100517.53;4992395;28;20077;-46
2022/12/09 06:58:41;;;;;;;46.75;32.78;;;;;;;3.45;100.00;100514.53;5001184;28;20051;-49
2022/12/09 07:01:14;;;;;;;39.35;30.08;;;;;;;3.42;100.00;100516.63;5009796;28;20547;-47
2022/12/09 07:03:44;;;;;;;41.20;29.02;;;;;;;3.41;100.00;100520.34;5004596;28;20133;-46
2022/12/09 07:06:31;;;;;;;42.65;31.33;;;;;;;3.41;100.00;100522.25;5003404;28;20046;-46
2022/12/09 07:09:02;;;;;;;40.92;28.98;;;;;;;3.41;100.00;100517.66;4984703;28;20497;-47
2022/12/09 07:11:30;;;;;;;39.47;28.88;;;;;;;3.30;100.00;100521.16;4999063;28;20069;-46
2022/12/09 07:13:58;;;;;;;39.65;28.65;;;;;;;3.17;100.00;100510.53;4962853;28;20515;-46
2022/12/09 07:16:27;;;;;;;40.00;28.83;;;;;;;3.04;100.00;100522.31;5009263;28;20069;-50
2022/12/09 07:18:55;;;;;;;41.00;29.45;;;;;;;2.89;100.00;100520.00;4980229;28;20050;-46
2022/12/09 07:21:24;;;;;;;37.30;27.40;;;;;;;2.89;100.00;100519.19;5001473;28;20134;-49
2022/12/09 07:23:52;;;;;;;39.75;27.77;;;;;;;2.87;100.00;100527.47;5011300;28;20050;-50
2022/12/09 07:26:20;;;;;;;37.50;28.55;;;;;;;2.85;100.00;100523.38;5012515;28;20034;-50
2022/12/09 07:28:49;;;;;;;35.03;26.35;;;;;;;2.84;100.00;100533.31;5003645;28;20042;-47
2022/12/09 07:31:25;;;;;;;34.85;26.30;;;;;;;2.83;100.00;100538.91;5009398;28;20050;-49
2022/12/09 07:33:55;;;;;;;36.92;26.67;;;;;;;2.82;100.00;100534.59;4995427;28;20046;-48
2022/12/09 07:36:26;;;;;;;35.55;25.95;;;;;;;2.73;100.00;100542.13;4995073;28;20048;-47
2022/12/09 07:38:58;;;;;;;34.38;25.63;;;;;;;2.66;100.00;100542.16;4989730;28;20557;-51
2022/12/09 07:41:26;;;;;;;35.17;24.67;;;;;;;2.66;100.00;100538.66;4977880;28;20126;-45
2022/12/09 07:43:54;;;;;;;34.33;25.88;;;;;;;2.77;100.00;100543.31;4966851;28;20045;-49
2022/12/09 07:46:26;;;;;;;33.25;24.02;;;;;;;2.88;100.00;100547.13;5007277;28;20060;-47
2022/12/09 07:48:54;;;;;;;32.42;24.65;;;;;;;2.96;100.00;100547.66;4978087;28;20126;-48
2022/12/09 07:51:23;;;;;;;32.95;25.27;;;;;;;2.99;100.00;100536.44;5006654;28;20042;-48
2022/12/09 07:53:51;;;;;;;37.08;26.27;;;;;;;3.04;100.00;100541.16;4995096;28;20563;-52
2022/12/09 07:56:21;;;;;;;37.22;27.15;;;;;;;2.96;100.00;100541.47;4995825;28;20089;-49
2022/12/09 07:58:53;;;;;;;34.85;25.73;;;;;;;2.84;100.00;100546.75;5009846;28;20049;-48
2022/12/09 08:01:23;;;;;;;37.50;26.65;;;;;;;2.77;100.00;100537.94;5015054;28;20038;-46
2022/12/09 08:03:51;;;;;;;35.95;25.55;;;;;;;2.78;100.00;100544.94;5013704;28;20065;-48
2022/12/09 08:06:21;;;;;;;33.17;25.17;;;;;;;2.82;100.00;100548.84;4997434;28;20042;-47
2022/12/09 08:08:50;;;;;;;35.13;25.25;;;;;;;2.88;100.00;100545.25;5010191;28;20038;-46
2022/12/09 08:11:25;;;;;;;34.38;25.60;;;;;;;2.94;100.00;100544.38;5000276;28;20052;-46
2022/12/09 08:13:58;;;;;;;33.70;24.73;;;;;;;2.91;100.00;100552.03;4998421;28;20041;-47
2022/12/09 08:16:30;;;;;;;34.70;25.05;;;;;;;2.92;100.00;100551.84;4998760;28;20034;-49
2022/12/09 08:18:59;;;;;;;36.55;26.15;;;;;;;2.95;100.00;100556.75;4988429;28;20054;-46
2022/12/09 08:21:29;;;;;;;36.17;26.95;;;;;;;2.97;100.00;100554.66;5011695;28;20081;-48
2022/12/09 08:23:59;;;;;;;37.58;26.67;;;;;;;2.95;100.00;100551.38;4998440;28;20377;-50
2022/12/09 08:26:29;;;;;;;33.03;25.40;;;;;;;2.93;100.00;100552.66;5001953;28;20089;-50
2022/12/09 08:28:58;;;;;;;36.40;26.80;;;;;;;2.93;100.00;100561.53;4968588;28;20121;-48
2022/12/09 08:31:27;;;;;;;33.13;24.35;;;;;;;2.96;100.00;100553.03;5010540;28;20050;-48
2022/12/09 08:33:56;;;;;;;33.03;24.05;;;;;;;3.00;100.00;100550.72;4998629;28;20050;-50
2022/12/09 08:36:26;;;;;;;31.92;23.25;;;;;;;3.04;100.00;100548.41;5015379;28;20041;-46
2022/12/09 08:38:57;;;;;;;32.65;25.13;;;;;;;3.06;100.00;100549.00;5001571;28;20691;-48
2022/12/09 08:41:35;;;;;;;32.75;24.70;;;;;;;3.08;100.00;100544.19;5015647;28;20519;-45
2022/12/09 08:44:07;;;;;;;34.42;25.33;;;;;;;3.09;100.00;100551.25;5015320;28;20096;-45
2022/12/09 08:46:36;;;;;;;34.25;24.98;;;;;;;3.08;100.00;100547.72;5015549;28;20041;-45
2022/12/09 08:49:05;;;;;;;33.80;24.40;;;;;;;3.11;100.00;100549.16;5010949;28;20034;-46
2022/12/09 08:51:34;;;;;;;33.83;25.48;;;;;;;2.98;100.00;100548.25;5006036;28;20046;-46
2022/12/09 08:54:03;;;;;;;34.95;25.35;;;;;;;2.87;100.00;100549.00;4998469;28;20081;-47
2022/12/09 08:56:30;;;;;;;31.75;24.33;;;;;;;2.85;100.00;100555.66;5001826;28;20062;-48
2022/12/09 08:58:58;;;;;;;36.47;27.48;;;;;;;2.76;100.00;100547.03;5003364;28;20077;-47
2022/12/09 09:01:31;;;;;;;35.38;27.85;;;;;;;2.68;100.00;100556.22;5011192;28;20038;-47
2022/12/09 09:04:01;;;;;;;37.75;27.45;;;;;;;2.51;100.00;100555.97;5008847;28;20054;-46
2022/12/09 09:06:29;;;;;;;36.65;27.50;;;;;;;2.46;100.00;100558.50;4997443;28;20066;-47
2022/12/09 09:08:57;;;;;;;34.28;25.10;;;;;;;2.44;100.00;100565.97;5003824;28;20604;-48
2022/12/09 09:11:26;;;;;;;36.55;25.52;;;;;;;2.40;100.00;100558.56;5007002;28;20041;-47
2022/12/09 09:13:54;;;;;;;34.25;25.50;;;;;;;2.37;100.00;100567.91;4978376;28;20043;-49
2022/12/09 09:16:25;;;;;;;33.30;25.50;;;;;;;2.37;100.00;100569.78;4985031;28;20046;-49
2022/12/09 09:18:53;;;;;;;31.95;24.52;;;;;;;2.40;100.00;100572.81;4982312;28;20050;-46
2022/12/09 09:21:23;;;;;;;33.78;24.30;;;;;;;2.63;100.00;100568.72;5008401;28;20064;-45
2022/12/09 09:23:52;;;;;;;34.30;24.90;;;;;;;2.70;100.00;100559.53;5006491;28;20054;-45
2022/12/09 09:26:22;;;;;;;36.10;27.70;;;;;;;2.77;100.00;100562.16;4990045;28;20070;-47
2022/12/09 09:28:50;;;;;;;35.63;26.88;;;;;;;2.79;100.00;100578.91;4987521;28;20050;-49
2022/12/09 09:31:20;;;;;;;34.65;25.60;;;;;;;2.74;100.00;100576.03;5010569;28;20041;-49
2022/12/09 09:33:49;;;;;;;37.30;27.25;;;;;;;2.73;100.00;100585.97;4957857;28;20516;-48
2022/12/09 09:36:22;;;;;;;36.13;26.75;;;;;;;2.66;100.00;100574.44;4990452;28;20088;-48
2022/12/09 09:38:52;;;;;;;33.97;26.45;;;;;;;2.65;100.00;100575.50;4990094;28;20049;-48
2022/12/09 09:41:41;;;;;;;34.05;25.70;;;;;;;2.63;100.00;100580.28;4996804;28;20050;-47
2022/12/09 09:44:30;;;;;;;34.75;25.75;;;;;;;2.70;100.00;100564.09;4972407;28;20096;-47
2022/12/09 09:46:59;;;;;;;37.30;27.90;;;;;;;2.77;100.00;100572.91;5014227;28;20045;-49
2022/12/09 09:49:44;;;;;;;34.00;25.33;;;;;;;2.85;100.00;100572.59;4978626;28;20054;-46
2022/12/09 09:52:22;;;;;;;37.05;25.85;;;;;;;2.91;100.00;100577.09;4993004;28;20053;-47
2022/12/09 09:54:50;;;;;;;37.25;25.42;;;;;;;2.83;100.00;100574.69;5009200;28;20121;-47
2022/12/09 09:57:53;;;;;;;34.92;25.45;;;;;;;2.81;100.00;100567.91;4994838;28;20145;-46
2022/12/09 10:00:26;;;;;;;31.33;22.75;;;;;;;2.82;100.00;100575.75;5000354;28;20512;-48
2022/12/09 10:02:58;;;;;;;33.40;24.55;;;;;;;2.88;100.00;100574.84;4996726;28;20054;-46
2022/12/09 10:05:57;;;;;;;34.25;24.40;;;;;;;2.94;100.00;100567.75;5001800;28;20046;-47
2022/12/09 10:08:57;;;;;;;34.65;24.83;;;;;;;2.97;100.00;100568.13;4982472;28;20501;-48
2022/12/09 10:11:56;;;;;;;33.58;25.65;;;;;;;2.99;100.00;100562.53;4988728;28;20046;-49
2022/12/09 10:14:57;;;;;;;33.97;26.27;;;;;;;2.95;100.00;100572.91;5003160;28;20429;-48
2022/12/09 10:17:34;;;;;;;37.47;25.77;;;;;;;2.94;100.00;100565.88;4985256;28;20042;-49
2022/12/09 10:20:10;;;;;;;30.67;23.33;;;;;;;2.94;100.00;100559.69;5007869;28;20065;-47
2022/12/09 10:22:57;;;;;;;34.70;24.07;;;;;;;2.97;100.00;100560.06;5013603;28;20170;-48
2022/12/09 10:25:29;;;;;;;32.58;23.88;;;;;;;3.01;100.00;100559.59;4984542;28;20391;-47
2022/12/09 10:28:12;;;;;;;34.15;25.17;;;;;;;3.04;100.00;100569.94;5005827;28;20088;-47
2022/12/09 10:30:40;;;;;;;35.95;25.58;;;;;;;3.06;100.00;100562.47;5013492;28;20065;-47
2022/12/09 10:33:19;;;;;;;32.28;24.17;;;;;;;3.08;100.00;100563.88;5013482;28;20092;-46
2022/12/09 10:35:48;;;;;;;30.85;22.02;;;;;;;3.12;100.00;100561.53;4999693;28;20039;-48
2022/12/09 10:38:17;;;;;;;33.97;25.38;;;;;;;3.14;100.00;100559.47;4999761;28;20046;-46
2022/12/09 10:40:45;;;;;;;30.13;21.98;;;;;;;3.17;100.00;100553.63;4996139;28;20037;-43
2022/12/09 10:43:36;;;;;;;41.00;27.30;;;;;;;3.06;100.00;100560.59;5013113;28;20101;-47
2022/12/09 10:46:08;;;;;;;36.20;26.30;;;;;;;3.02;100.00;100558.56;5003860;28;20042;-47
2022/12/09 10:48:45;;;;;;;33.13;25.10;;;;;;;2.95;100.00;100561.31;4978112;28;20054;-45
2022/12/09 10:51:30;;;;;;;37.03;27.73;;;;;;;2.92;100.00;100557.22;5007740;28;20077;-49
2022/12/09 10:54:24;;;;;;;35.85;26.90;;;;;;;2.88;100.00;100558.69;4995980;28;20038;-51
2022/12/09 10:57:10;;;;;;;35.55;25.25;;;;;;;2.85;100.00;100556.47;4990483;28;20485;-47
2022/12/09 10:59:39;;;;;;;33.17;23.75;;;;;;;2.83;100.00;100557.72;4990099;28;20129;-49
2022/12/09 11:02:08;;;;;;;26.08;18.52;;;;;;;2.85;100.00;100547.56;5012799;28;20122;-48
2022/12/09 11:04:42;;;;;;;28.02;17.75;;;;;;;2.96;100.00;100549.53;5012857;28;20041;-46
2022/12/09 11:07:15;;;;;;;24.73;18.85;;;;;;;3.03;100.00;100552.13;4985905;28;20118;-46
2022/12/09 11:09:48;;;;;;;27.55;20.38;;;;;;;3.08;100.00;100542.34;4988220;28;20046;-49
2022/12/09 11:12:31;;;;;;;28.77;21.13;;;;;;;3.10;100.00;100550.19;4993411;28;20081;-48
2022/12/09 11:15:30;;;;;;;30.77;22.42;;;;;;;3.10;100.00;100547.50;4990123;28;20065;-45
2022/12/09 11:18:03;;;;;;;29.55;22.45;;;;;;;3.08;100.00;100549.56;4988279;28;20038;-48
2022/12/09 11:20:32;;;;;;;24.13;17.40;;;;;;;3.12;100.00;100556.16;4985403;28;20050;-48
2022/12/09 11:23:15;;;;;;;29.70;20.35;;;;;;;3.17;100.00;100553.63;4978314;28;20484;-47
2022/12/09 11:26:01;;;;;;;29.25;22.23;;;;;;;3.12;100.00;100556.16;5012983;28;20115;-47
2022/12/09 11:28:34;;;;;;;28.73;21.83;;;;;;;3.14;100.00;100559.47;4988179;28;20113;-46
2022/12/09 11:31:19;;;;;;;32.92;23.85;;;;;;;3.09;100.00;100562.00;5007572;28;20042;-46
2022/12/09 11:34:03;;;;;;;33.08;24.13;;;;;;;3.01;100.00;100554.22;5000737;28;20104;-49